Nearby METAR Reports

 

KMLI - Moline/Quad City, Illinois, USA
Distance from station: ENE 4mi, 7km
Updated: 09/30/2022 10:52pm
Clear
Clear
 Wind from ESE
Wind: ESE 3 mph , 6 km/h
Temperature: 46°F , 8°C
Dew Point: 43°F , 6°C
Humidity: 87%
Barometer: 30.17 inHg , 1021.7 hPa
Clouds: Clear
Visibility: 10 miles , 16 km
2022/10/01 03:52 KMLI 010352Z 11003KT 10SM CLR 08/06 A3017 RMK AO2 SLP216 T00780056
KDVN - Davenport/Quad C, Iowa, USA
Distance from station: N 14mi, 22km
Updated: 09/30/2022 10:52pm
Clear
Clear
 Wind from E
Wind: E 7 mph , 11 km/h
Temperature: 46°F , 8°C
Wind Chill: 42°F , 6°C
Dew Point: 43°F , 6°C
Humidity: 87%
Barometer: 30.19 inHg , 1022.4 hPa
Clouds: Clear
Visibility: 10 miles , 16 km
2022/10/01 03:52 KDVN 010352Z AUTO 10006KT 10SM CLR 08/06 A3019 RMK AO2 SLP220 T00830056
 
KMUT - Muscatine, Iowa, USA
Distance from station: W 29mi, 47km
Updated: 09/30/2022 11:35pm
Clear
Clear
 Wind from calm
Wind: Calm
Temperature: 48°F , 9°C
Dew Point: 48°F , 9°C
Humidity: 100%
Barometer: 30.17 inHg , 1021.7 hPa
Clouds: Clear
Visibility: 10 miles , 16 km
2022/10/01 04:35 KMUT 010435Z AUTO 00000KT 10SM CLR 09/09 A3017 RMK AO2
KCWI - Clinton Muni, Iowa, USA
Distance from station: NNE 31mi, 50km
Updated: 09/30/2022 10:56pm
Clear
Clear
 Wind from ENE
Wind: ENE 10 mph , 17 km/h
Temperature: 46°F , 8°C
Wind Chill: 41°F , 5°C
Dew Point: 45°F , 7°C
Humidity: 93%
Barometer: 30.19 inHg , 1022.4 hPa
Clouds: Clear
Visibility: 10 miles , 16 km
2022/10/01 03:56 KCWI 010356Z AUTO 07009KT 10SM CLR 08/07 A3019 RMK AO2 SLP226 T00830072
 
KGBG - Galesburg, Illinois, USA
Distance from station: SSE 35mi, 56km
Updated: 09/30/2022 11:35pm
Clear
Clear
 Wind from E
Wind: E 6 mph , 9 km/h
Temperature: 54°F , 12°C
Dew Point: 46°F , 8°C
Humidity: 77%
Barometer: 30.18 inHg , 1022 hPa
Clouds: Clear
Visibility: 10 miles , 16 km
2022/10/01 04:35 KGBG 010435Z AUTO 09005KT 10SM CLR 12/08 A3018 RMK AO2 T01230076
KSFY - Savanna/Tritown, Illinois, USA
Distance from station: NNE 50mi, 80km
Updated: 09/30/2022 11:42pm
Clear
Clear
 Wind from ENE
Wind: ENE 5 mph , 7 km/h
Temperature: 50°F , 10°C
Wind Chill: 48°F , 9°C
Dew Point: 45°F , 7°C
Humidity: 82%
Barometer: 30.19 inHg , 1022.4 hPa
Clouds: Clear
Visibility: 10 miles , 16 km
2022/10/01 04:42 KSFY 010442Z AUTO 07004KT 10SM CLR 10/07 A3019 RMK AO2